createdAt,value
2023-03-21T00:01:22.576Z,46.68
2023-03-21T00:06:25.608Z,46.56
2023-03-21T00:11:29.776Z,46.93
2023-03-21T00:16:34.993Z,46.80
2023-03-21T00:21:51.902Z,47.08
2023-03-21T00:27:15.841Z,47.00
2023-03-21T00:32:23.300Z,47.06
2023-03-21T00:37:28.249Z,46.93
2023-03-21T00:42:32.678Z,47.30
2023-03-21T00:47:35.550Z,47.39
2023-03-21T00:52:41.344Z,47.29
2023-03-21T00:57:50.214Z,47.29
2023-03-21T01:03:17.586Z,47.58
2023-03-21T01:08:31.246Z,47.90
2023-03-21T01:13:44.179Z,47.83
2023-03-21T01:18:59.592Z,48.17
2023-03-21T01:24:02.636Z,48.51
2023-03-21T01:29:06.739Z,48.66
2023-03-21T01:34:09.568Z,48.79
2023-03-21T01:39:12.780Z,48.74
2023-03-21T01:44:17.806Z,48.98
2023-03-21T01:49:26.039Z,49.19
2023-03-21T01:54:38.517Z,49.09
2023-03-21T01:59:44.467Z,49.43
2023-03-21T02:04:59.490Z,49.56
2023-03-21T02:10:07.753Z,49.58
2023-03-21T02:15:12.627Z,49.84
2023-03-21T02:20:49.505Z,49.85
2023-03-21T02:26:28.491Z,50.40
2023-03-21T02:31:41.817Z,50.62
2023-03-21T02:36:56.286Z,50.55
2023-03-21T02:42:03.696Z,50.63
2023-03-21T02:47:11.086Z,50.86
2023-03-21T02:52:28.615Z,50.91
2023-03-21T02:57:42.670Z,50.88
2023-03-21T03:02:54.544Z,51.30
2023-03-21T03:08:14.226Z,51.09
2023-03-21T03:13:23.117Z,51.44
2023-03-21T03:18:29.141Z,51.45
2023-03-21T03:23:36.703Z,51.43
2023-03-21T03:28:40.308Z,51.31
2023-03-21T03:33:51.671Z,51.62
2023-03-21T03:38:56.115Z,51.91
2023-03-21T03:44:00.070Z,51.51
2023-03-21T03:49:06.577Z,51.62
2023-03-21T03:54:12.798Z,51.77
2023-03-21T03:59:19.395Z,51.69
2023-03-21T04:04:35.110Z,51.98
2023-03-21T04:09:44.647Z,51.81
2023-03-21T04:14:51.919Z,51.87
2023-03-21T04:20:05.448Z,51.87
2023-03-21T04:25:21.902Z,51.93
2023-03-21T04:30:34.090Z,51.98
2023-03-21T04:35:45.956Z,51.75
2023-03-21T04:40:51.816Z,51.95
2023-03-21T04:45:54.814Z,51.58
2023-03-21T04:50:57.699Z,51.72
2023-03-21T04:56:01.829Z,51.67
2023-03-21T05:01:05.786Z,51.51
2023-03-21T05:06:09.548Z,51.59
2023-03-21T05:11:13.780Z,51.74
2023-03-21T05:16:16.588Z,51.48
2023-03-21T05:21:20.418Z,51.64
2023-03-21T05:26:27.003Z,51.44
2023-03-21T05:31:43.257Z,51.78
2023-03-21T05:36:49.610Z,51.78
2023-03-21T05:41:54.642Z,51.78
2023-03-21T05:46:57.607Z,51.82
2023-03-21T05:52:07.660Z,51.55
2023-03-21T05:57:12.131Z,51.81
2023-03-21T06:02:28.199Z,51.55
2023-03-21T06:07:35.419Z,51.80
2023-03-21T06:12:39.935Z,51.50
2023-03-21T06:17:55.811Z,51.73
2023-03-21T06:22:58.904Z,51.66
2023-03-21T06:28:03.184Z,51.67
2023-03-21T06:33:07.091Z,51.56
2023-03-21T06:38:10.000Z,51.67
2023-03-21T06:43:16.105Z,51.73
2023-03-21T06:48:19.790Z,51.35
2023-03-21T06:53:27.369Z,51.45
2023-03-21T06:58:50.163Z,51.59
2023-03-21T07:04:20.824Z,51.30
2023-03-21T07:09:28.028Z,51.55
2023-03-21T07:14:35.205Z,51.28
2023-03-21T07:19:38.243Z,51.32
2023-03-21T07:24:41.095Z,51.36
2023-03-21T07:29:47.249Z,51.13
2023-03-21T07:34:50.233Z,51.25
2023-03-21T07:39:53.264Z,51.39
2023-03-21T07:44:57.932Z,51.14
2023-03-21T07:50:00.756Z,50.94
2023-03-21T07:55:04.890Z,51.26
2023-03-21T08:00:11.092Z,44.27
2023-03-21T08:05:19.353Z,41.72
2023-03-21T08:10:22.281Z,42.30
2023-03-21T08:15:26.505Z,42.48
2023-03-21T08:20:29.249Z,42.54
2023-03-21T08:25:32.293Z,43.58
2023-03-21T08:30:36.426Z,47.18
2023-03-21T08:35:41.140Z,47.67
2023-03-21T08:40:44.400Z,47.52
2023-03-21T08:45:48.733Z,46.95
2023-03-21T08:50:51.503Z,46.68
2023-03-21T08:55:54.347Z,46.52
2023-03-21T09:00:58.555Z,46.60
2023-03-21T09:06:02.682Z,46.17
2023-03-21T09:11:06.051Z,46.40
2023-03-21T09:16:11.000Z,46.20
2023-03-21T09:21:14.660Z,45.86
2023-03-21T09:26:17.718Z,45.62
2023-03-21T09:31:22.885Z,45.63
2023-03-21T09:36:26.239Z,45.26
2023-03-21T09:42:04.629Z,45.55
2023-03-21T09:47:14.096Z,45.31
2023-03-21T09:52:20.293Z,45.23
2023-03-21T09:57:29.763Z,45.12
2023-03-21T10:02:38.687Z,44.95
2023-03-21T10:07:42.537Z,45.12
2023-03-21T10:12:46.088Z,44.97
2023-03-21T10:17:54.444Z,44.95
2023-03-21T10:22:57.871Z,44.94
2023-03-21T10:28:01.319Z,44.86
2023-03-21T10:33:09.642Z,44.86
2023-03-21T10:38:16.953Z,45.04
2023-03-21T10:43:31.148Z,44.74
2023-03-21T10:48:40.629Z,44.47
2023-03-21T10:53:47.577Z,44.93
2023-03-21T10:58:52.698Z,43.73
2023-03-21T11:03:59.404Z,44.07
2023-03-21T11:09:04.669Z,44.14
2023-03-21T11:14:09.453Z,43.79
2023-03-21T11:19:17.727Z,43.21
2023-03-21T11:24:20.822Z,43.27
2023-03-21T11:29:29.026Z,43.14
2023-03-21T11:34:43.649Z,43.08
2023-03-21T11:39:46.825Z,43.36
2023-03-21T11:44:49.602Z,43.15
2023-03-21T11:50:04.213Z,43.22
2023-03-21T11:55:15.932Z,43.14
2023-03-21T12:00:22.372Z,43.03
2023-03-21T12:05:28.129Z,39.56
2023-03-21T12:10:37.479Z,39.43
2023-03-21T12:15:42.898Z,39.30
2023-03-21T12:20:47.834Z,39.40
2023-03-21T12:25:54.898Z,39.66
2023-03-21T12:31:00.008Z,40.65
2023-03-21T12:36:22.491Z,40.65
2023-03-21T12:41:27.381Z,41.11
2023-03-21T12:46:33.887Z,41.30
2023-03-21T12:51:40.860Z,41.34
2023-03-21T12:56:48.234Z,41.49
2023-03-21T13:01:52.624Z,41.47
2023-03-21T13:06:56.718Z,41.56
2023-03-21T13:11:59.759Z,41.77
2023-03-21T13:17:03.306Z,41.94
2023-03-21T13:22:08.935Z,42.06
2023-03-21T13:27:20.008Z,42.04
2023-03-21T13:32:26.502Z,41.97
2023-03-21T13:37:33.358Z,42.01
2023-03-21T13:42:36.557Z,41.98
2023-03-21T13:47:42.145Z,42.31
2023-03-21T13:52:51.128Z,42.58
2023-03-21T13:57:54.366Z,42.63
2023-03-21T14:02:59.416Z,42.92
2023-03-21T14:08:17.189Z,42.88
2023-03-21T14:13:25.927Z,43.29
2023-03-21T14:18:52.225Z,43.94
2023-03-21T14:24:01.034Z,43.84
2023-03-21T14:29:07.162Z,40.36
2023-03-21T14:34:12.678Z,39.31
2023-03-21T14:39:18.978Z,40.68
2023-03-21T14:44:25.585Z,40.84
2023-03-21T14:49:29.140Z,41.67
2023-03-21T14:54:33.759Z,42.17
2023-03-21T14:59:37.965Z,42.52
2023-03-21T15:04:41.343Z,42.78
2023-03-21T15:09:45.788Z,42.91
2023-03-21T15:14:48.692Z,42.91
2023-03-21T15:19:51.568Z,43.14
2023-03-21T15:24:58.362Z,43.03
2023-03-21T15:30:01.384Z,43.56
2023-03-21T15:35:09.384Z,43.62
2023-03-21T15:40:22.268Z,43.57
2023-03-21T15:45:26.189Z,43.80
2023-03-21T15:50:33.756Z,43.41
2023-03-21T15:55:43.600Z,43.80
2023-03-21T16:00:52.754Z,43.73
2023-03-21T16:06:05.287Z,44.07
2023-03-21T16:11:13.226Z,44.06
2023-03-21T16:16:17.571Z,44.29
2023-03-21T16:21:21.505Z,44.69
2023-03-21T16:26:27.504Z,44.69
2023-03-21T16:31:32.062Z,44.53
2023-03-21T16:36:36.547Z,44.94
2023-03-21T16:41:40.919Z,44.82
2023-03-21T16:46:43.803Z,45.01
2023-03-21T16:51:46.613Z,45.18
2023-03-21T16:56:51.531Z,45.22
2023-03-21T17:01:54.483Z,45.28
2023-03-21T17:06:57.308Z,45.43
2023-03-21T17:12:01.813Z,43.14
2023-03-21T17:17:04.902Z,44.74
2023-03-21T17:22:07.759Z,44.96
2023-03-21T17:27:14.853Z,45.47
2023-03-21T17:32:18.337Z,45.45
2023-03-21T17:37:21.957Z,45.79
2023-03-21T17:42:26.362Z,45.75
2023-03-21T17:47:31.091Z,45.95
2023-03-21T17:52:34.500Z,45.84
2023-03-21T17:57:38.694Z,45.80
2023-03-21T18:02:41.777Z,45.66
2023-03-21T18:13:09.394Z,45.66
2023-03-21T18:18:12.341Z,45.45
2023-03-21T18:23:15.425Z,45.70
2023-03-21T18:28:21.242Z,45.67
2023-03-21T18:33:24.360Z,45.49
2023-03-21T18:38:27.579Z,45.27
2023-03-21T18:48:55.244Z,45.29
2023-03-21T18:54:00.839Z,45.45
2023-03-21T18:59:05.135Z,45.22
2023-03-21T19:04:21.274Z,45.11
2023-03-21T19:09:31.250Z,45.03
2023-03-21T19:14:36.168Z,45.20
2023-03-21T19:19:39.376Z,45.21
2023-03-21T19:24:43.004Z,45.22
2023-03-21T19:30:02.892Z,44.96
2023-03-21T19:35:10.090Z,45.08
2023-03-21T19:40:13.668Z,45.02
2023-03-21T19:45:18.050Z,44.93
2023-03-21T19:50:49.344Z,44.79
2023-03-21T19:55:44.463Z,44.93
2023-03-21T20:00:48.857Z,44.84
2023-03-21T20:05:51.629Z,44.87
2023-03-21T20:10:54.647Z,44.74
2023-03-21T20:16:03.735Z,44.68
2023-03-21T20:21:16.971Z,44.80
2023-03-21T20:26:21.040Z,44.49
2023-03-21T20:31:25.308Z,44.68
2023-03-21T20:36:43.889Z,44.81
2023-03-21T20:41:46.855Z,44.71
2023-03-21T20:46:51.234Z,44.75
2023-03-21T20:57:17.942Z,44.83
2023-03-21T21:08:41.039Z,44.87
2023-03-21T21:13:45.345Z,44.69
2023-03-21T21:18:48.958Z,44.68
2023-03-21T21:23:53.067Z,44.55
2023-03-21T21:28:58.010Z,44.63
2023-03-21T21:34:03.050Z,44.60
2023-03-21T21:39:08.102Z,44.67
2023-03-21T21:44:11.017Z,44.49
2023-03-21T21:49:13.790Z,44.72
2023-03-21T21:54:19.015Z,44.80
2023-03-21T21:59:24.327Z,44.58
2023-03-21T22:04:28.536Z,44.80
2023-03-21T22:09:32.785Z,44.72
2023-03-21T22:14:35.819Z,44.61
2023-03-21T22:19:40.209Z,44.68
2023-03-21T22:24:44.692Z,44.53
2023-03-21T22:29:47.437Z,44.78
2023-03-21T22:34:50.265Z,44.50
2023-03-21T22:39:54.401Z,44.70
2023-03-21T22:44:57.118Z,44.58
2023-03-21T22:49:59.959Z,44.58
2023-03-21T22:55:04.266Z,44.63
2023-03-21T23:00:13.071Z,44.82
2023-03-21T23:05:15.993Z,44.68
2023-03-21T23:10:20.439Z,45.04
2023-03-21T23:15:23.379Z,44.98
2023-03-21T23:20:26.154Z,45.09
2023-03-21T23:25:30.306Z,45.12
2023-03-21T23:30:33.117Z,45.26
2023-03-21T23:35:38.210Z,45.30
2023-03-21T23:40:42.609Z,45.26
2023-03-21T23:45:45.939Z,45.36
2023-03-21T23:50:49.006Z,45.49
2023-03-21T23:55:53.142Z,45.28
